createdAt,value
2023-04-15T00:01:25.327Z,3.93
2023-04-15T00:07:18.813Z,4.17
2023-04-15T00:13:12.293Z,4.20
2023-04-15T00:19:07.189Z,3.90
2023-04-15T00:25:00.782Z,3.27
2023-04-15T00:30:54.266Z,3.57
2023-04-15T00:36:49.211Z,3.17
2023-04-15T00:42:42.613Z,3.23
2023-04-15T00:48:36.748Z,3.63
2023-04-15T00:54:31.696Z,3.47
2023-04-15T01:00:25.713Z,3.90
2023-04-15T01:06:19.841Z,4.00
2023-04-15T01:12:16.843Z,3.93
2023-04-15T01:18:10.826Z,4.23
2023-04-15T01:24:10.137Z,3.50
2023-04-15T01:30:05.351Z,4.00
2023-04-15T01:35:59.131Z,4.10
2023-04-15T01:41:52.638Z,4.50
2023-04-15T01:47:47.664Z,4.00
2023-04-15T01:53:41.458Z,4.80
2023-04-15T01:59:35.503Z,5.10
2023-04-15T02:05:30.451Z,5.00
2023-04-15T02:11:24.318Z,5.27
2023-04-15T02:17:19.548Z,6.50
2023-04-15T02:23:14.831Z,6.73
2023-04-15T02:29:10.754Z,7.37
2023-04-15T02:35:05.978Z,7.50
2023-04-15T02:41:00.860Z,7.70
2023-04-15T02:46:55.323Z,8.47
2023-04-15T02:52:48.891Z,10.23
2023-04-15T02:58:45.126Z,9.97
2023-04-15T03:04:38.630Z,11.20
2023-04-15T03:10:31.776Z,10.87
2023-04-15T03:16:26.456Z,13.20
2023-04-15T03:22:20.139Z,11.80
2023-04-15T03:28:14.523Z,11.83
2023-04-15T03:34:09.500Z,13.30
2023-04-15T03:40:03.942Z,13.00
2023-04-15T03:45:56.983Z,12.43
2023-04-15T03:51:52.035Z,11.60
2023-04-15T03:57:45.071Z,13.90
2023-04-15T04:03:38.752Z,12.87
2023-04-15T04:09:33.692Z,12.53
2023-04-15T04:15:27.086Z,14.13
2023-04-15T04:21:21.456Z,15.37
2023-04-15T04:27:16.485Z,15.10
2023-04-15T04:33:10.131Z,15.40
2023-04-15T04:39:03.808Z,18.07
2023-04-15T04:44:58.686Z,18.20
2023-04-15T04:50:52.022Z,19.93
2023-04-15T04:56:45.508Z,20.40
2023-04-15T05:02:42.150Z,20.70
2023-04-15T05:08:35.553Z,21.57
2023-04-15T05:14:29.048Z,23.03
2023-04-15T05:20:23.508Z,23.13
2023-04-15T05:26:17.023Z,22.00
2023-04-15T05:32:10.775Z,24.90
2023-04-15T05:38:06.086Z,24.90
2023-04-15T05:44:00.624Z,23.47
2023-04-15T05:49:53.948Z,25.40
2023-04-15T05:55:48.908Z,23.97
2023-04-15T06:01:42.662Z,26.23
2023-04-15T06:07:36.502Z,26.63
2023-04-15T06:13:31.397Z,26.37
2023-04-15T06:19:25.029Z,26.07
2023-04-15T06:25:18.845Z,26.33
2023-04-15T06:31:13.776Z,27.40
2023-04-15T06:37:07.528Z,26.03
2023-04-15T06:43:00.636Z,28.57
2023-04-15T06:48:55.503Z,29.70
2023-04-15T06:54:48.563Z,27.80
2023-04-15T07:00:42.433Z,26.47
2023-04-15T07:06:37.083Z,29.60
2023-04-15T07:12:30.537Z,26.80
2023-04-15T07:18:23.600Z,26.57
2023-04-15T07:24:20.113Z,27.60
2023-04-15T07:30:13.858Z,28.07
2023-04-15T07:36:07.285Z,28.20
2023-04-15T07:42:02.556Z,27.17
2023-04-15T07:47:56.456Z,27.70
2023-04-15T07:53:50.364Z,29.60
2023-04-15T07:59:44.953Z,28.23
2023-04-15T08:05:38.398Z,30.27
2023-04-15T08:11:31.495Z,28.10
2023-04-15T08:17:26.235Z,29.47
2023-04-15T08:23:19.860Z,28.83
2023-04-15T08:29:12.902Z,29.50
2023-04-15T08:35:08.113Z,30.50
2023-04-15T08:41:05.240Z,32.97
2023-04-15T08:47:02.583Z,31.00
2023-04-15T08:53:00.168Z,30.20
2023-04-15T08:58:54.855Z,29.60
2023-04-15T09:04:48.143Z,28.40
2023-04-15T09:10:43.036Z,28.70
2023-04-15T09:17:04.262Z,28.27
2023-04-15T09:22:57.969Z,26.23
2023-04-15T09:28:52.935Z,24.43
2023-04-15T09:34:46.495Z,23.50
2023-04-15T09:40:42.296Z,24.20
2023-04-15T09:46:47.530Z,21.37
2023-04-15T09:52:44.567Z,21.90
2023-04-15T09:58:39.183Z,21.03
2023-04-15T10:04:37.107Z,19.67
2023-04-15T10:10:30.897Z,18.57
2023-04-15T10:16:27.991Z,17.63
2023-04-15T10:22:23.903Z,17.30
2023-04-15T10:28:18.409Z,16.13
2023-04-15T10:34:12.357Z,15.43
2023-04-15T10:40:28.874Z,15.03
2023-04-15T10:46:37.093Z,14.33
2023-04-15T10:52:30.663Z,14.43
2023-04-15T10:58:27.352Z,14.33
2023-04-15T11:04:53.459Z,14.57
2023-04-15T11:10:56.292Z,13.93
2023-04-15T11:16:50.966Z,14.47
2023-04-15T11:22:49.470Z,13.20
2023-04-15T11:28:45.325Z,14.83
2023-04-15T11:34:40.333Z,13.53
2023-04-15T11:40:35.393Z,14.00
2023-04-15T11:46:32.695Z,13.60
2023-04-15T11:52:27.611Z,11.40
2023-04-15T11:58:22.873Z,11.03
2023-04-15T12:04:20.811Z,11.43
2023-04-15T12:10:19.018Z,11.53
2023-04-15T12:16:12.318Z,12.57
2023-04-15T12:22:07.902Z,13.00
2023-04-15T12:28:02.356Z,12.23
2023-04-15T12:33:56.682Z,12.83
2023-04-15T12:39:51.424Z,11.60
2023-04-15T12:45:46.713Z,12.30
2023-04-15T12:51:39.759Z,11.87
2023-04-15T12:57:33.402Z,12.60
2023-04-15T13:03:28.492Z,12.90
2023-04-15T13:09:22.160Z,14.07
2023-04-15T13:15:15.688Z,14.60
2023-04-15T13:21:11.337Z,12.27
2023-04-15T13:27:05.503Z,12.00
2023-04-15T13:32:59.098Z,12.73
2023-04-15T13:38:54.065Z,11.43
2023-04-15T13:44:47.609Z,12.20
2023-04-15T13:50:45.584Z,12.80
2023-04-15T13:56:40.652Z,10.60
2023-04-15T14:02:34.480Z,8.37
2023-04-15T14:08:27.935Z,8.83
2023-04-15T14:14:22.824Z,9.40
2023-04-15T14:20:17.201Z,9.27
2023-04-15T14:26:11.048Z,9.60
2023-04-15T14:32:12.386Z,10.07
2023-04-15T14:38:06.086Z,8.83
2023-04-15T14:43:59.110Z,9.27
2023-04-15T14:49:54.094Z,9.80
2023-04-15T14:55:47.209Z,10.20
2023-04-15T15:01:40.848Z,10.93
2023-04-15T15:07:36.460Z,10.37
2023-04-15T15:13:29.983Z,10.00
2023-04-15T15:19:24.094Z,10.27
2023-04-15T15:25:18.967Z,10.30
2023-04-15T15:31:12.479Z,8.73
2023-04-15T15:37:05.628Z,9.17
2023-04-15T15:43:00.541Z,9.20
2023-04-15T15:48:54.029Z,9.80
2023-04-15T15:54:47.253Z,10.73
2023-04-15T16:00:42.668Z,11.07
2023-04-15T16:06:36.274Z,12.50
2023-04-15T16:12:29.852Z,11.77
2023-04-15T16:18:24.774Z,12.37
2023-04-15T16:24:18.324Z,14.17
2023-04-15T16:30:12.834Z,14.23
2023-04-15T16:36:08.300Z,15.03
2023-04-15T16:42:02.612Z,15.37
2023-04-15T16:47:56.765Z,16.10
2023-04-15T16:53:51.868Z,16.13
2023-04-15T16:59:45.359Z,15.40
2023-04-15T17:05:40.131Z,16.50
2023-04-15T17:11:35.744Z,15.37
2023-04-15T17:17:29.266Z,15.80
2023-04-15T17:23:22.894Z,15.53
2023-04-15T17:29:17.900Z,16.50
2023-04-15T17:35:11.914Z,16.20
2023-04-15T17:41:07.774Z,14.57
2023-04-15T17:47:02.712Z,14.53
2023-04-15T17:52:56.332Z,15.13
2023-04-15T17:58:49.838Z,15.83
2023-04-15T18:04:44.948Z,15.13
2023-04-15T18:10:39.741Z,15.27
2023-04-15T18:19:05.992Z,15.03
2023-04-15T18:25:04.651Z,15.60
2023-04-15T18:30:58.192Z,16.43
2023-04-15T18:36:53.131Z,16.07
2023-04-15T18:42:46.266Z,15.40
2023-04-15T18:48:39.836Z,15.80
2023-04-15T18:54:34.879Z,16.03
2023-04-15T19:00:28.445Z,16.37
2023-04-15T19:06:22.644Z,15.13
2023-04-15T19:12:17.144Z,15.43
2023-04-15T19:18:10.962Z,14.33
2023-04-15T19:24:04.201Z,15.73
2023-04-15T19:29:59.872Z,16.67
2023-04-15T19:35:53.384Z,15.40
2023-04-15T19:41:47.932Z,13.73
2023-04-15T19:47:43.004Z,14.57
2023-04-15T19:53:36.150Z,15.73
2023-04-15T19:59:29.703Z,14.47
2023-04-15T20:05:24.711Z,14.10
2023-04-15T20:11:18.512Z,14.80
2023-04-15T20:17:12.017Z,14.37
2023-04-15T20:23:06.920Z,12.97
2023-04-15T20:29:00.974Z,14.60
2023-04-15T20:34:54.453Z,14.20
2023-04-15T20:40:49.045Z,20.53
2023-04-15T20:46:42.137Z,14.50
2023-04-15T20:52:35.158Z,13.97
2023-04-15T20:58:30.020Z,15.67
2023-04-15T21:04:24.794Z,16.50
2023-04-15T21:10:17.915Z,16.53
2023-04-15T21:16:12.844Z,15.97
2023-04-15T21:22:06.442Z,15.10
2023-04-15T21:27:59.949Z,16.37
2023-04-15T21:33:54.782Z,15.60
2023-04-15T21:39:48.459Z,16.37
2023-04-15T21:46:20.764Z,15.80
2023-04-15T21:52:01.233Z,16.77
2023-04-15T21:57:54.590Z,17.20
2023-04-15T22:03:47.855Z,16.70
2023-04-15T22:09:42.828Z,16.27
2023-04-15T22:15:36.113Z,15.83
2023-04-15T22:21:29.653Z,16.10
2023-04-15T22:27:24.123Z,16.63
2023-04-15T22:33:17.637Z,15.70
2023-04-15T22:39:11.231Z,15.90
2023-04-15T22:45:07.008Z,16.03
2023-04-15T22:51:00.533Z,15.47
2023-04-15T22:56:53.815Z,15.60
2023-04-15T23:02:48.972Z,15.77
2023-04-15T23:08:42.834Z,17.00
2023-04-15T23:14:35.967Z,16.40
2023-04-15T23:20:30.831Z,16.40
2023-04-15T23:26:24.368Z,16.90
2023-04-15T23:32:17.857Z,17.53
2023-04-15T23:38:12.310Z,16.93
2023-04-15T23:44:06.256Z,17.70
2023-04-15T23:49:59.287Z,16.73
2023-04-15T23:55:54.147Z,16.03
